createdAt,value
2018-01-20T00:01:32.234Z,83.30
2018-01-20T00:03:59.686Z,83.00
2018-01-20T00:06:27.167Z,82.80
2018-01-20T00:08:55.407Z,82.80
2018-01-20T00:11:48.539Z,82.70
2018-01-20T00:14:16.012Z,82.90
2018-01-20T00:16:43.483Z,83.00
2018-01-20T00:19:10.951Z,83.10
2018-01-20T00:21:38.464Z,83.20
2018-01-20T00:24:05.938Z,82.90
2018-01-20T00:26:40.023Z,82.90
2018-01-20T00:29:07.506Z,82.70
2018-01-20T00:31:35.024Z,82.60
2018-01-20T00:34:02.505Z,82.70
2018-01-20T00:36:30.017Z,82.60
2018-01-20T00:38:58.386Z,82.50
2018-01-20T00:41:26.794Z,82.20
2018-01-20T00:43:54.322Z,82.20
2018-01-20T00:46:22.539Z,82.40
2018-01-20T00:48:50.023Z,82.40
2018-01-20T00:51:17.499Z,82.00
2018-01-20T00:53:45.759Z,82.20
2018-01-20T00:56:13.241Z,82.20
2018-01-20T00:58:41.519Z,82.30
2018-01-20T01:01:09.784Z,82.20
2018-01-20T01:03:38.574Z,82.40
2018-01-20T01:06:07.311Z,82.00
2018-01-20T01:08:34.794Z,82.00
2018-01-20T01:11:02.316Z,82.40
2018-01-20T01:13:29.790Z,82.60
2018-01-20T01:15:57.268Z,82.40
2018-01-20T01:18:24.740Z,82.50
2018-01-20T01:20:52.368Z,82.80
2018-01-20T01:23:19.844Z,82.50
2018-01-20T01:25:47.322Z,82.50
2018-01-20T01:28:14.810Z,82.70
2018-01-20T01:30:42.407Z,82.50
2018-01-20T01:33:09.878Z,82.40
2018-01-20T01:35:38.144Z,82.30
2018-01-20T01:38:06.380Z,82.40
2018-01-20T01:40:33.843Z,82.10
2018-01-20T01:43:01.339Z,81.70
2018-01-20T01:45:28.851Z,82.10
2018-01-20T01:47:56.331Z,82.10
2018-01-20T01:50:23.806Z,82.40
2018-01-20T01:52:52.052Z,82.10
2018-01-20T01:55:19.561Z,82.10
2018-01-20T01:57:47.036Z,82.00
2018-01-20T02:00:14.562Z,81.60
2018-01-20T02:02:42.136Z,81.90
2018-01-20T02:05:09.642Z,81.70
2018-01-20T02:07:37.122Z,81.60
2018-01-20T02:10:05.343Z,81.10
2018-01-20T02:12:32.828Z,81.10
2018-01-20T02:15:00.315Z,81.00
2018-01-20T02:17:27.796Z,80.70
2018-01-20T02:19:55.265Z,81.00
2018-01-20T02:22:22.723Z,81.10
2018-01-20T02:24:50.186Z,80.70
2018-01-20T02:27:17.861Z,80.60
2018-01-20T02:29:45.353Z,80.70
2018-01-20T02:32:13.578Z,80.20
2018-01-20T02:34:41.047Z,80.30
2018-01-20T02:37:08.528Z,80.10
2018-01-20T02:39:36.804Z,80.30
2018-01-20T02:42:05.038Z,80.60
2018-01-20T02:44:32.523Z,80.60
2018-01-20T02:46:59.991Z,80.80
2018-01-20T02:49:28.235Z,81.20
2018-01-20T02:51:55.689Z,81.20
2018-01-20T02:54:23.159Z,81.10
2018-01-20T02:56:50.643Z,81.60
2018-01-20T02:59:18.879Z,81.80
2018-01-20T03:01:47.111Z,82.00
2018-01-20T03:04:14.604Z,82.00
2018-01-20T03:06:42.062Z,82.20
2018-01-20T03:09:09.531Z,82.60
2018-01-20T03:11:37.777Z,83.00
2018-01-20T03:14:05.238Z,83.00
2018-01-20T03:16:32.705Z,83.20
2018-01-20T03:19:00.177Z,83.10
2018-01-20T03:21:28.758Z,83.40
2018-01-20T03:23:56.206Z,83.50
2018-01-20T03:26:23.668Z,83.90
2018-01-20T03:28:51.908Z,84.30
2018-01-20T03:31:19.359Z,84.30
2018-01-20T03:33:46.969Z,84.10
2018-01-20T03:36:15.196Z,84.20
2018-01-20T03:38:42.675Z,84.80
2018-01-20T03:41:10.156Z,84.20
2018-01-20T03:43:38.382Z,84.50
2018-01-20T03:46:05.856Z,84.40
2018-01-20T03:48:34.843Z,84.60
2018-01-20T03:51:03.069Z,84.60
2018-01-20T03:53:30.552Z,84.60
2018-01-20T03:55:58.042Z,84.70
2018-01-20T03:58:25.498Z,84.80
2018-01-20T04:00:53.719Z,85.40
2018-01-20T04:03:21.210Z,85.10
2018-01-20T04:05:48.662Z,85.20
2018-01-20T04:08:16.142Z,85.30
2018-01-20T04:10:44.416Z,85.80
2018-01-20T04:13:11.885Z,85.70
2018-01-20T04:15:40.122Z,86.00
2018-01-20T04:18:07.586Z,86.00
2018-01-20T04:20:35.068Z,86.20
2018-01-20T04:23:03.289Z,86.20
2018-01-20T04:25:30.766Z,86.20
2018-01-20T04:27:58.583Z,86.10
2018-01-20T04:30:26.091Z,86.10
2018-01-20T04:32:53.546Z,85.90
2018-01-20T04:35:21.047Z,85.90
2018-01-20T04:37:48.509Z,85.80
2018-01-20T04:40:15.986Z,86.30
2018-01-20T04:42:43.445Z,85.50
2018-01-20T04:45:10.925Z,85.30
2018-01-20T04:47:38.499Z,85.50
2018-01-20T04:50:05.947Z,85.60
2018-01-20T04:52:33.427Z,86.00
2018-01-20T04:55:01.648Z,86.30
2018-01-20T04:57:29.126Z,86.30
2018-01-20T04:59:56.578Z,86.40
2018-01-20T05:02:24.088Z,86.40
2018-01-20T05:04:51.540Z,86.50
2018-01-20T05:07:19.044Z,86.40
2018-01-20T05:09:46.515Z,86.40
2018-01-20T05:12:13.961Z,86.50
2018-01-20T05:14:41.441Z,86.40
2018-01-20T05:17:09.677Z,86.30
2018-01-20T05:19:37.151Z,86.30
2018-01-20T05:22:04.614Z,86.50
2018-01-20T05:24:32.867Z,86.60
2018-01-20T05:27:00.333Z,86.50
2018-01-20T05:29:27.844Z,86.70
2018-01-20T05:31:55.301Z,86.90
2018-01-20T05:34:22.774Z,87.10
2018-01-20T05:36:50.261Z,87.00
2018-01-20T05:39:17.733Z,86.70
2018-01-20T05:41:45.990Z,86.50
2018-01-20T05:44:13.758Z,86.40
2018-01-20T05:46:41.219Z,86.50
2018-01-20T05:49:08.688Z,86.60
2018-01-20T05:51:36.927Z,86.90
2018-01-20T05:54:04.391Z,86.80
2018-01-20T05:56:31.864Z,87.10
2018-01-20T05:59:00.091Z,87.40
2018-01-20T06:01:27.612Z,87.40
2018-01-20T06:03:55.070Z,87.30
2018-01-20T06:06:22.562Z,87.50
2018-01-20T06:08:50.080Z,87.50
2018-01-20T06:11:17.522Z,87.80
2018-01-20T06:13:45.759Z,87.90
2018-01-20T06:16:13.234Z,87.90
2018-01-20T06:18:40.718Z,87.70
2018-01-20T06:21:08.970Z,86.90
2018-01-20T06:23:36.438Z,86.90
2018-01-20T06:26:04.700Z,86.10
2018-01-20T06:28:32.210Z,86.10
2018-01-20T06:30:59.676Z,86.10
2018-01-20T06:33:27.170Z,85.60
2018-01-20T06:35:54.649Z,85.40
2018-01-20T06:38:22.113Z,85.10
2018-01-20T06:40:49.583Z,84.30
2018-01-20T06:43:17.055Z,84.20
2018-01-20T06:45:44.553Z,84.20
2018-01-20T06:48:12.771Z,84.50
2018-01-20T06:50:40.250Z,84.50
2018-01-20T06:53:07.721Z,84.80
2018-01-20T06:55:35.202Z,85.30
2018-01-20T06:58:03.484Z,85.70
2018-01-20T07:00:31.723Z,85.90
2018-01-20T07:02:59.222Z,85.90
2018-01-20T07:05:26.714Z,86.00
2018-01-20T07:07:54.176Z,86.20
2018-01-20T07:10:21.647Z,86.30
2018-01-20T07:12:49.133Z,86.30
2018-01-20T07:15:17.378Z,86.10
2018-01-20T07:17:44.845Z,86.10
2018-01-20T07:20:12.781Z,85.80
2018-01-20T07:22:40.280Z,85.70
2018-01-20T07:25:07.762Z,85.40
2018-01-20T07:27:35.244Z,85.20
2018-01-20T07:30:02.715Z,85.00
2018-01-20T07:32:30.171Z,84.60
2018-01-20T07:34:57.655Z,84.40
2018-01-20T07:37:25.118Z,84.20
2018-01-20T07:39:59.146Z,83.20
2018-01-20T07:42:26.625Z,83.20
2018-01-20T07:44:54.122Z,83.00
2018-01-20T07:47:22.388Z,82.50
2018-01-20T07:49:49.854Z,82.50
2018-01-20T07:52:17.352Z,82.10
2018-01-20T07:54:44.814Z,82.10
2018-01-20T07:57:12.298Z,82.20
2018-01-20T07:59:39.785Z,81.70
2018-01-20T08:02:07.269Z,81.40
2018-01-20T08:04:34.738Z,81.50
2018-01-20T08:07:02.208Z,81.70
2018-01-20T08:09:29.692Z,80.70
2018-01-20T08:11:57.157Z,80.90
2018-01-20T08:14:24.627Z,81.10
2018-01-20T08:16:52.873Z,80.70
2018-01-20T08:19:20.338Z,80.60
2018-01-20T08:21:47.828Z,80.50
2018-01-20T08:24:15.289Z,79.90
2018-01-20T08:26:42.764Z,80.00
2018-01-20T08:29:10.222Z,79.50
2018-01-20T08:31:37.724Z,79.30
2018-01-20T08:34:05.210Z,79.50
2018-01-20T08:36:33.437Z,79.30
2018-01-20T08:39:00.964Z,79.10
2018-01-20T08:41:28.434Z,78.90
2018-01-20T08:43:55.976Z,78.40
2018-01-20T08:46:23.449Z,78.40
2018-01-20T08:48:50.940Z,78.60
2018-01-20T08:51:18.400Z,78.00
2018-01-20T08:53:45.945Z,77.30
2018-01-20T08:56:13.418Z,78.00
2018-01-20T08:58:41.676Z,77.30
2018-01-20T09:01:09.158Z,77.30
2018-01-20T09:03:37.408Z,77.50
2018-01-20T09:06:04.917Z,77.60
2018-01-20T09:08:32.387Z,77.10
2018-01-20T09:10:59.934Z,76.90
2018-01-20T09:13:27.407Z,77.10
2018-01-20T09:15:54.887Z,77.40
2018-01-20T09:18:23.185Z,76.70
2018-01-20T09:20:51.422Z,75.00
2018-01-20T09:23:18.926Z,74.90
2018-01-20T09:25:46.411Z,74.50
2018-01-20T09:28:13.890Z,74.10
2018-01-20T09:30:41.428Z,73.30
2018-01-20T09:33:08.874Z,73.10
2018-01-20T09:35:36.380Z,73.00
2018-01-20T09:38:03.845Z,72.60
2018-01-20T09:40:32.184Z,73.00
2018-01-20T09:42:59.670Z,72.80
2018-01-20T09:45:27.141Z,72.80
2018-01-20T09:47:55.404Z,71.80
2018-01-20T09:50:22.875Z,71.60
2018-01-20T09:52:51.162Z,71.10
2018-01-20T09:55:19.404Z,70.80
2018-01-20T09:57:46.886Z,70.80
2018-01-20T10:00:15.124Z,70.10
2018-01-20T10:02:42.593Z,70.10
2018-01-20T10:05:10.174Z,70.90
2018-01-20T10:07:38.417Z,70.50
2018-01-20T10:10:05.884Z,70.50
2018-01-20T10:12:33.360Z,70.30
2018-01-20T10:15:01.600Z,69.90
2018-01-20T10:17:29.057Z,69.90
2018-01-20T10:19:56.597Z,70.30
2018-01-20T10:22:24.055Z,70.20
2018-01-20T10:24:51.518Z,70.30
2018-01-20T10:27:19.035Z,70.10
2018-01-20T10:29:46.512Z,69.30
2018-01-20T10:32:13.981Z,69.60
2018-01-20T10:34:41.461Z,69.40
2018-01-20T10:37:08.934Z,70.10
2018-01-20T10:39:37.182Z,70.60
2018-01-20T10:42:04.664Z,70.60
2018-01-20T10:44:32.899Z,70.50
2018-01-20T10:47:00.394Z,70.40
2018-01-20T10:49:28.623Z,69.70
2018-01-20T10:51:56.131Z,69.70
2018-01-20T10:54:24.389Z,70.60
2018-01-20T10:56:52.625Z,69.60
2018-01-20T10:59:20.107Z,69.50
2018-01-20T11:01:47.611Z,69.50
2018-01-20T11:04:15.085Z,69.40
2018-01-20T11:06:42.562Z,69.40
2018-01-20T11:09:10.054Z,69.30
2018-01-20T11:11:38.293Z,68.80
2018-01-20T11:14:05.771Z,68.70
2018-01-20T11:16:34.600Z,69.10
2018-01-20T11:19:02.185Z,69.90
2018-01-20T11:21:29.671Z,69.30
2018-01-20T11:23:57.172Z,69.60
2018-01-20T11:26:24.828Z,70.00
2018-01-20T11:28:52.380Z,70.70
2018-01-20T11:31:19.835Z,72.40
2018-01-20T11:33:47.336Z,73.10
2018-01-20T11:36:14.812Z,74.80
2018-01-20T11:38:42.299Z,76.10
2018-01-20T11:41:09.771Z,78.10
2018-01-20T11:43:37.255Z,78.80
2018-01-20T11:46:04.716Z,81.10
2018-01-20T11:48:32.180Z,81.70
2018-01-20T11:50:59.659Z,82.60
2018-01-20T11:53:27.963Z,84.00
2018-01-20T11:55:55.427Z,83.90
2018-01-20T11:58:22.916Z,84.50
2018-01-20T12:00:50.408Z,85.00
2018-01-20T12:03:18.644Z,86.20
2018-01-20T12:05:46.137Z,86.20
2018-01-20T12:08:14.356Z,87.50
2018-01-20T12:10:41.814Z,87.40
2018-01-20T12:13:09.300Z,87.40
2018-01-20T12:15:36.774Z,87.70
2018-01-20T12:18:04.995Z,87.50
2018-01-20T12:20:32.466Z,87.50
2018-01-20T12:22:59.940Z,89.40
2018-01-20T12:25:27.422Z,89.70
2018-01-20T12:27:55.660Z,90.80
2018-01-20T12:30:23.145Z,90.80
2018-01-20T12:32:51.419Z,90.90
2018-01-20T12:35:19.667Z,91.10
2018-01-20T12:37:47.203Z,90.80
2018-01-20T12:40:15.105Z,91.30
2018-01-20T12:42:42.603Z,91.20
2018-01-20T12:45:10.082Z,91.40
2018-01-20T12:47:37.577Z,91.30
2018-01-20T12:50:05.030Z,91.60
2018-01-20T12:52:33.273Z,92.00
2018-01-20T12:55:00.785Z,91.70
2018-01-20T12:57:29.022Z,91.90
2018-01-20T12:59:56.494Z,91.90
2018-01-20T13:02:24.761Z,92.30
2018-01-20T13:04:52.494Z,92.20
2018-01-20T13:07:19.962Z,92.50
2018-01-20T13:09:47.456Z,92.40
2018-01-20T13:12:15.701Z,92.50
2018-01-20T13:14:43.367Z,92.50
2018-01-20T13:17:10.815Z,92.60
2018-01-20T13:19:38.779Z,92.70
2018-01-20T13:22:07.056Z,93.00
2018-01-20T13:24:34.529Z,92.90
2018-01-20T13:27:02.774Z,93.20
2018-01-20T13:29:30.277Z,93.10
2018-01-20T13:31:57.997Z,93.30
2018-01-20T13:34:25.470Z,93.10
2018-01-20T13:36:52.949Z,93.30
2018-01-20T13:39:21.320Z,93.30
2018-01-20T13:41:49.607Z,93.30
2018-01-20T13:44:17.851Z,93.40
2018-01-20T13:46:45.350Z,93.40
2018-01-20T13:49:12.870Z,93.60
2018-01-20T13:51:40.330Z,93.60
2018-01-20T13:54:08.581Z,93.60
2018-01-20T13:56:36.078Z,93.50
2018-01-20T13:59:04.294Z,93.50
2018-01-20T14:01:31.781Z,93.50
2018-01-20T14:03:59.253Z,93.60
2018-01-20T14:06:27.534Z,93.70
2018-01-20T14:08:55.755Z,93.70
2018-01-20T14:11:23.286Z,93.70
2018-01-20T14:13:50.774Z,93.70
2018-01-20T14:16:18.312Z,93.90
2018-01-20T14:18:45.859Z,93.90
2018-01-20T14:21:13.345Z,94.00
2018-01-20T14:23:40.842Z,93.90
2018-01-20T14:26:09.072Z,94.00
2018-01-20T14:28:36.588Z,94.00
2018-01-20T14:31:04.858Z,93.90
2018-01-20T14:33:33.101Z,94.00
2018-01-20T14:36:00.687Z,94.00
2018-01-20T14:38:28.572Z,94.10
2018-01-20T14:40:56.049Z,94.10
2018-01-20T14:43:23.540Z,94.00
2018-01-20T14:45:51.002Z,94.00
2018-01-20T14:48:18.488Z,94.50
2018-01-20T14:50:45.993Z,94.00
2018-01-20T14:53:13.524Z,94.00
2018-01-20T14:55:40.998Z,94.00
2018-01-20T14:58:08.504Z,94.10
2018-01-20T15:00:36.014Z,94.00
2018-01-20T15:03:03.503Z,94.10
2018-01-20T15:05:31.758Z,94.20
2018-01-20T15:08:00.734Z,94.30
2018-01-20T15:10:28.219Z,94.60
2018-01-20T15:12:56.490Z,94.30
2018-01-20T15:15:23.981Z,94.30
2018-01-20T15:17:51.444Z,94.40
2018-01-20T15:20:18.921Z,94.30
2018-01-20T15:22:46.515Z,94.30
2018-01-20T15:25:13.997Z,94.40
2018-01-20T15:27:41.543Z,94.40
2018-01-20T15:30:09.767Z,94.50
2018-01-20T15:32:37.246Z,94.40
2018-01-20T15:35:04.707Z,94.60
2018-01-20T15:37:32.184Z,94.50
2018-01-20T15:39:59.675Z,94.60
2018-01-20T15:42:27.151Z,94.70
2018-01-20T15:44:54.624Z,94.50
2018-01-20T15:47:22.089Z,94.40
2018-01-20T15:49:49.562Z,94.60
2018-01-20T15:52:17.800Z,94.50
2018-01-20T15:54:45.304Z,94.40
2018-01-20T15:57:13.545Z,94.60
2018-01-20T15:59:41.022Z,94.60
2018-01-20T16:02:09.275Z,94.70
2018-01-20T16:04:36.744Z,94.70
2018-01-20T16:07:04.978Z,94.70
2018-01-20T16:09:32.476Z,94.70
2018-01-20T16:12:00.699Z,94.40
2018-01-20T16:14:28.182Z,94.30
2018-01-20T16:16:55.685Z,94.20
2018-01-20T16:19:23.202Z,94.10
2018-01-20T16:21:50.684Z,94.10
2018-01-20T16:24:18.932Z,94.20
2018-01-20T16:26:47.922Z,94.20
2018-01-20T16:29:15.470Z,94.20
2018-01-20T16:31:42.960Z,94.40
2018-01-20T16:34:11.317Z,94.50
2018-01-20T16:36:38.808Z,94.40
2018-01-20T16:39:06.287Z,94.60
2018-01-20T16:41:33.822Z,94.50
2018-01-20T16:44:01.300Z,94.80
2018-01-20T16:46:28.822Z,94.80
2018-01-20T16:48:57.056Z,94.90
2018-01-20T16:51:24.522Z,94.80
2018-01-20T16:53:51.996Z,94.80
2018-01-20T16:56:20.234Z,94.60
2018-01-20T16:58:47.705Z,94.50
2018-01-20T17:01:15.175Z,94.70
2018-01-20T17:03:42.678Z,94.70
2018-01-20T17:06:10.164Z,94.90
2018-01-20T17:08:37.658Z,94.60
2018-01-20T17:11:05.113Z,94.70
2018-01-20T17:13:33.350Z,94.60
2018-01-20T17:16:00.856Z,94.60
2018-01-20T17:18:28.319Z,94.50
2018-01-20T17:20:56.037Z,94.50
2018-01-20T17:23:24.316Z,94.40
2018-01-20T17:25:51.815Z,94.40
2018-01-20T17:28:19.292Z,94.50
2018-01-20T17:30:46.827Z,94.40
2018-01-20T17:33:14.291Z,94.40
2018-01-20T17:35:41.792Z,94.60
2018-01-20T17:38:09.302Z,94.60
2018-01-20T17:40:36.791Z,94.70
2018-01-20T17:43:04.258Z,94.70
2018-01-20T17:45:31.740Z,94.70
2018-01-20T17:47:59.978Z,94.70
2018-01-20T17:50:27.465Z,94.60
2018-01-20T17:52:55.752Z,94.50
2018-01-20T17:55:24.020Z,94.50
2018-01-20T17:57:52.244Z,94.60
2018-01-20T18:00:19.721Z,94.60
2018-01-20T18:02:47.217Z,94.60
2018-01-20T18:05:14.721Z,94.60
2018-01-20T18:07:42.248Z,94.70
2018-01-20T18:10:09.707Z,94.80
2018-01-20T18:12:37.224Z,94.80
2018-01-20T18:15:05.544Z,94.70
2018-01-20T18:17:33.024Z,94.70
2018-01-20T18:20:00.509Z,94.60
2018-01-20T18:22:28.772Z,94.70
2018-01-20T18:24:56.275Z,94.70
2018-01-20T18:27:23.733Z,94.70
2018-01-20T18:29:51.227Z,94.80
2018-01-20T18:32:18.730Z,94.80
2018-01-20T18:34:46.180Z,94.90
2018-01-20T18:37:13.659Z,94.80
2018-01-20T18:39:41.140Z,94.80
2018-01-20T18:42:08.639Z,94.90
2018-01-20T18:44:36.902Z,94.90
2018-01-20T18:47:04.420Z,94.90
2018-01-20T18:49:31.922Z,94.90
2018-01-20T18:52:00.215Z,94.80
2018-01-20T18:54:27.752Z,94.80
2018-01-20T18:56:55.474Z,94.70
2018-01-20T18:59:23.161Z,94.70
2018-01-20T19:01:50.663Z,94.70
2018-01-20T19:04:18.154Z,94.70
2018-01-20T19:06:45.607Z,94.60
2018-01-20T19:09:13.217Z,94.70
2018-01-20T19:11:41.439Z,94.80
2018-01-20T19:14:08.955Z,94.70
2018-01-20T19:16:36.465Z,94.80
2018-01-20T19:19:03.938Z,94.90
2018-01-20T19:21:31.446Z,95.20
2018-01-20T19:23:58.918Z,95.00
2018-01-20T19:26:26.403Z,95.00
2018-01-20T19:28:53.904Z,95.00
2018-01-20T19:31:21.390Z,95.00
2018-01-20T19:33:48.854Z,95.00
2018-01-20T19:36:18.286Z,95.00
2018-01-20T19:38:46.526Z,94.90
2018-01-20T19:41:14.018Z,94.90
2018-01-20T19:43:42.274Z,94.90
2018-01-20T19:46:09.772Z,94.90
2018-01-20T19:48:37.245Z,95.00
2018-01-20T19:51:04.741Z,94.90
2018-01-20T19:53:32.221Z,95.00
2018-01-20T19:56:00.470Z,95.10
2018-01-20T19:58:28.013Z,95.10
2018-01-20T20:00:55.499Z,95.10
2018-01-20T20:03:23.069Z,95.00
2018-01-20T20:05:51.292Z,94.90
2018-01-20T20:08:18.783Z,94.90
2018-01-20T20:10:48.052Z,94.90
2018-01-20T20:13:15.546Z,94.90
2018-01-20T20:15:43.802Z,95.00
2018-01-20T20:18:11.284Z,95.00
2018-01-20T20:20:38.756Z,95.00
2018-01-20T20:23:06.243Z,95.00
2018-01-20T20:25:33.825Z,95.00
2018-01-20T20:28:01.361Z,94.90
2018-01-20T20:30:28.857Z,94.80
2018-01-20T20:32:57.100Z,94.80
2018-01-20T20:35:24.609Z,94.80
2018-01-20T20:37:52.085Z,94.80
2018-01-20T20:40:19.591Z,94.80
2018-01-20T20:42:47.080Z,94.90
2018-01-20T20:45:14.559Z,95.00
2018-01-20T20:47:42.070Z,94.90
2018-01-20T20:50:10.338Z,94.90
2018-01-20T20:52:38.574Z,94.80
2018-01-20T20:55:06.046Z,94.80
2018-01-20T20:57:33.548Z,94.80
2018-01-20T21:00:01.038Z,94.80
2018-01-20T21:02:28.520Z,94.80
2018-01-20T21:04:57.510Z,94.90
2018-01-20T21:07:25.002Z,94.90
2018-01-20T21:09:52.487Z,94.80
2018-01-20T21:12:19.964Z,94.80
2018-01-20T21:14:47.470Z,94.80
2018-01-20T21:17:15.743Z,94.90
2018-01-20T21:19:43.967Z,94.90
2018-01-20T21:22:11.463Z,94.80
2018-01-20T21:24:39.697Z,94.80
2018-01-20T21:27:07.186Z,94.80
2018-01-20T21:29:35.450Z,95.10
2018-01-20T21:32:02.910Z,94.90
2018-01-20T21:34:31.179Z,95.10
2018-01-20T21:36:58.685Z,95.10
2018-01-20T21:39:26.161Z,95.10
2018-01-20T21:41:53.698Z,94.90
2018-01-20T21:44:21.200Z,94.90
2018-01-20T21:46:49.442Z,94.90
2018-01-20T21:49:16.929Z,94.80
2018-01-20T21:51:45.180Z,94.80
2018-01-20T21:54:12.642Z,94.80
2018-01-20T21:56:40.135Z,94.80
2018-01-20T21:59:07.620Z,95.10
2018-01-20T22:01:35.123Z,94.80
2018-01-20T22:04:03.360Z,95.00
2018-01-20T22:06:30.852Z,94.90
2018-01-20T22:08:58.334Z,94.90
2018-01-20T22:11:25.843Z,95.00
2018-01-20T22:13:53.313Z,95.00
2018-01-20T22:16:21.580Z,95.00
2018-01-20T22:18:49.099Z,94.90
2018-01-20T22:21:16.621Z,94.90
2018-01-20T22:23:44.857Z,95.00
2018-01-20T22:26:12.339Z,95.00
2018-01-20T22:28:40.593Z,95.10
2018-01-20T22:31:08.106Z,95.00
2018-01-20T22:33:35.583Z,95.10
2018-01-20T22:36:03.067Z,95.10
2018-01-20T22:38:30.535Z,95.00
2018-01-20T22:40:58.525Z,95.10
2018-01-20T22:43:27.449Z,95.20
2018-01-20T22:45:55.256Z,95.10
2018-01-20T22:48:23.752Z,95.20
2018-01-20T22:50:53.649Z,95.10
2018-01-20T22:53:21.687Z,95.20
2018-01-20T22:55:49.965Z,95.10
2018-01-20T22:58:17.486Z,95.00
2018-01-20T23:00:45.017Z,95.00
2018-01-20T23:03:17.827Z,94.90
2018-01-20T23:05:45.321Z,94.90
2018-01-20T23:08:12.799Z,94.90
2018-01-20T23:10:40.299Z,95.00
2018-01-20T23:13:07.768Z,95.40
2018-01-20T23:15:35.252Z,95.10
2018-01-20T23:18:02.728Z,95.10
2018-01-20T23:20:30.963Z,95.20
2018-01-20T23:22:58.497Z,95.20
2018-01-20T23:25:25.961Z,95.20
2018-01-20T23:27:53.443Z,95.20
2018-01-20T23:30:20.927Z,95.20
2018-01-20T23:32:49.183Z,95.20
2018-01-20T23:35:16.683Z,95.10
2018-01-20T23:37:44.248Z,95.20
2018-01-20T23:40:11.737Z,95.10
2018-01-20T23:42:39.210Z,95.10
2018-01-20T23:45:06.690Z,95.00
2018-01-20T23:47:35.111Z,95.00
2018-01-20T23:50:02.578Z,95.00
2018-01-20T23:52:30.067Z,95.10
2018-01-20T23:54:57.608Z,95.10
2018-01-20T23:57:25.098Z,95.10
2018-01-20T23:59:52.577Z,95.20
